createdAt,value
2022-11-10T00:02:45.566Z,8.30
2022-11-10T00:05:38.354Z,8.30
2022-11-10T00:08:28.799Z,8.30
2022-11-10T00:11:19.320Z,8.20
2022-11-10T00:14:30.165Z,8.20
2022-11-10T00:17:20.453Z,8.20
2022-11-10T00:20:11.505Z,8.20
2022-11-10T00:23:01.763Z,8.20
2022-11-10T00:25:52.255Z,8.20
2022-11-10T00:28:43.235Z,8.20
2022-11-10T00:31:33.704Z,8.20
2022-11-10T00:34:25.118Z,8.20
2022-11-10T00:37:15.467Z,8.20
2022-11-10T00:40:06.404Z,8.30
2022-11-10T00:42:56.930Z,8.30
2022-11-10T00:45:47.329Z,8.30
2022-11-10T00:48:37.875Z,8.30
2022-11-10T00:51:29.657Z,8.30
2022-11-10T00:54:19.954Z,8.30
2022-11-10T00:57:10.392Z,8.30
2022-11-10T01:00:00.868Z,8.30
2022-11-10T01:02:51.194Z,8.30
2022-11-10T01:05:42.283Z,8.30
2022-11-10T01:08:32.789Z,8.30
2022-11-10T01:11:27.981Z,8.20
2022-11-10T01:14:18.202Z,8.20
2022-11-10T01:17:08.659Z,8.20
2022-11-10T01:19:59.232Z,8.30
2022-11-10T01:22:49.751Z,8.30
2022-11-10T01:25:40.189Z,8.30
2022-11-10T01:28:31.951Z,8.30
2022-11-10T01:31:22.709Z,8.30
2022-11-10T01:34:13.059Z,8.30
2022-11-10T01:37:03.110Z,8.90
2022-11-10T01:39:53.742Z,8.30
2022-11-10T01:42:54.346Z,8.20
2022-11-10T01:46:06.360Z,8.20
2022-11-10T01:49:00.736Z,8.20
2022-11-10T01:51:58.297Z,8.20
2022-11-10T01:54:49.735Z,8.20
2022-11-10T01:57:41.541Z,8.20
2022-11-10T02:00:31.753Z,8.20
2022-11-10T02:03:47.343Z,8.20
2022-11-10T02:06:40.545Z,8.30
2022-11-10T02:09:30.968Z,8.20
2022-11-10T02:12:36.980Z,8.20
2022-11-10T02:15:27.695Z,8.20
2022-11-10T02:18:18.024Z,8.30
2022-11-10T02:21:09.460Z,8.20
2022-11-10T02:23:59.693Z,6.20
2022-11-10T02:26:54.372Z,8.20
2022-11-10T02:29:44.368Z,8.10
2022-11-10T02:32:34.742Z,8.20
2022-11-10T02:35:25.176Z,8.20
2022-11-10T02:38:15.700Z,8.20
2022-11-10T02:41:06.292Z,8.20
2022-11-10T02:43:58.388Z,8.20
2022-11-10T02:46:48.850Z,8.10
2022-11-10T02:49:39.293Z,8.10
2022-11-10T02:52:29.616Z,8.10
2022-11-10T02:55:19.898Z,8.10
2022-11-10T02:58:10.272Z,8.10
2022-11-10T03:01:04.389Z,8.10
2022-11-10T03:03:54.801Z,8.10
2022-11-10T03:06:45.091Z,8.00
2022-11-10T03:09:35.695Z,8.00
2022-11-10T03:12:25.733Z,8.00
2022-11-10T03:15:16.196Z,8.10
2022-11-10T03:18:06.751Z,8.10
2022-11-10T03:20:56.947Z,8.10
2022-11-10T03:23:47.616Z,8.10
2022-11-10T03:26:38.173Z,8.10
2022-11-10T03:29:28.630Z,8.00
2022-11-10T03:32:18.943Z,8.00
2022-11-10T03:35:10.044Z,8.00
2022-11-10T03:38:00.133Z,8.10
2022-11-10T03:41:17.428Z,8.10
2022-11-10T03:44:01.443Z,8.00
2022-11-10T03:46:52.020Z,8.00
2022-11-10T03:49:42.724Z,8.00
2022-11-10T03:52:33.747Z,8.00
2022-11-10T03:55:23.893Z,8.00
2022-11-10T03:58:14.301Z,8.00
2022-11-10T04:01:05.072Z,8.00
2022-11-10T04:03:56.568Z,8.10
2022-11-10T04:07:05.497Z,8.00
2022-11-10T04:09:55.702Z,8.00
2022-11-10T04:13:04.729Z,8.00
2022-11-10T04:15:55.213Z,8.00
2022-11-10T04:18:45.708Z,8.00
2022-11-10T04:21:36.254Z,8.00
2022-11-10T04:24:26.739Z,8.00
2022-11-10T04:27:17.257Z,8.00
2022-11-10T04:30:08.956Z,8.00
2022-11-10T04:32:59.119Z,8.00
2022-11-10T04:35:49.463Z,8.00
2022-11-10T04:38:40.416Z,8.00
2022-11-10T04:41:31.699Z,8.00
2022-11-10T04:44:22.070Z,8.00
2022-11-10T04:47:12.425Z,8.00
2022-11-10T04:50:03.018Z,8.10
2022-11-10T04:52:53.419Z,8.10
2022-11-10T04:55:45.096Z,8.10
2022-11-10T04:58:35.546Z,8.10
2022-11-10T05:01:27.783Z,8.10
2022-11-10T05:04:18.542Z,8.00
2022-11-10T05:07:09.065Z,8.00
2022-11-10T05:09:59.585Z,8.00
2022-11-10T05:12:52.540Z,8.00
2022-11-10T05:15:42.927Z,8.00
2022-11-10T05:18:33.505Z,8.00
2022-11-10T05:21:23.906Z,8.00
2022-11-10T05:24:14.224Z,8.00
2022-11-10T05:27:04.876Z,8.00
2022-11-10T05:29:55.486Z,8.00
2022-11-10T05:32:45.924Z,8.00
2022-11-10T05:35:37.187Z,8.00
2022-11-10T05:38:27.991Z,8.00
2022-11-10T05:41:18.168Z,8.00
2022-11-10T05:44:08.642Z,7.90
2022-11-10T05:46:59.195Z,8.00
2022-11-10T05:49:49.753Z,8.00
2022-11-10T05:52:50.038Z,8.00
2022-11-10T05:55:40.831Z,8.00
2022-11-10T05:58:31.114Z,8.00
2022-11-10T06:01:21.517Z,8.00
2022-11-10T06:04:11.994Z,8.00
2022-11-10T06:07:02.575Z,8.00
2022-11-10T06:09:52.909Z,8.00
2022-11-10T06:12:43.367Z,7.90
2022-11-10T06:15:33.819Z,7.90
2022-11-10T06:18:24.177Z,7.90
2022-11-10T06:21:14.607Z,7.90
2022-11-10T06:24:05.186Z,7.90
2022-11-10T06:26:55.544Z,7.90
2022-11-10T06:29:45.868Z,7.90
2022-11-10T06:32:36.357Z,7.90
2022-11-10T06:35:27.846Z,7.90
2022-11-10T06:38:18.313Z,7.90
2022-11-10T06:41:09.544Z,7.90
2022-11-10T06:44:00.270Z,7.90
2022-11-10T06:46:51.460Z,8.00
2022-11-10T06:49:41.763Z,8.00
2022-11-10T06:52:32.320Z,8.00
2022-11-10T06:55:22.596Z,8.00
2022-11-10T06:58:12.968Z,8.00
2022-11-10T07:01:03.500Z,8.00
2022-11-10T07:04:18.107Z,8.00
2022-11-10T07:07:04.358Z,8.00
2022-11-10T07:09:54.709Z,8.10
2022-11-10T07:12:44.991Z,8.00
2022-11-10T07:15:35.989Z,8.10
2022-11-10T07:18:26.267Z,8.90
2022-11-10T07:21:16.736Z,8.10
2022-11-10T07:24:07.618Z,8.10
2022-11-10T07:26:58.240Z,8.10
2022-11-10T07:29:48.767Z,8.20
2022-11-10T07:32:39.243Z,8.30
2022-11-10T07:35:30.368Z,8.30
2022-11-10T07:38:20.633Z,8.40
2022-11-10T07:41:11.030Z,8.40
2022-11-10T07:44:01.439Z,8.50
2022-11-10T07:46:51.852Z,8.60
2022-11-10T07:49:42.335Z,8.50
2022-11-10T07:52:32.764Z,8.50
2022-11-10T07:55:23.255Z,8.50
2022-11-10T07:58:17.408Z,8.50
2022-11-10T08:01:08.087Z,8.50
2022-11-10T08:03:58.540Z,8.50
2022-11-10T08:06:49.422Z,8.60
2022-11-10T08:09:39.761Z,8.60
2022-11-10T08:12:33.673Z,8.90
2022-11-10T08:15:25.705Z,8.70
2022-11-10T08:18:23.498Z,8.80
2022-11-10T08:21:14.088Z,8.90
2022-11-10T08:24:04.716Z,9.00
2022-11-10T08:26:55.759Z,9.00
2022-11-10T08:29:46.290Z,9.10
2022-11-10T08:32:36.706Z,9.10
2022-11-10T08:35:29.781Z,9.20
2022-11-10T08:38:22.197Z,9.30
2022-11-10T08:41:12.723Z,9.20
2022-11-10T08:44:03.107Z,9.20
2022-11-10T08:46:53.713Z,9.20
2022-11-10T08:49:44.369Z,9.20
2022-11-10T08:52:34.760Z,9.20
2022-11-10T08:55:25.199Z,9.20
2022-11-10T08:58:19.190Z,9.20
2022-11-10T09:01:11.550Z,9.20
2022-11-10T09:04:01.582Z,9.20
2022-11-10T09:06:52.070Z,9.30
2022-11-10T09:09:42.515Z,9.60
2022-11-10T09:12:32.998Z,10.00
2022-11-10T09:15:23.418Z,10.20
2022-11-10T09:18:15.268Z,10.60
2022-11-10T09:21:11.688Z,10.60
2022-11-10T09:24:02.205Z,10.70
2022-11-10T09:26:52.968Z,10.60
2022-11-10T09:29:43.205Z,10.50
2022-11-10T09:32:34.349Z,10.50
2022-11-10T09:35:25.591Z,10.50
2022-11-10T09:38:15.855Z,10.70
2022-11-10T09:41:09.085Z,10.90
2022-11-10T09:44:09.469Z,11.20
2022-11-10T09:47:35.279Z,11.60
2022-11-10T09:50:41.245Z,11.70
2022-11-10T09:53:44.787Z,11.70
2022-11-10T09:56:37.419Z,11.80
2022-11-10T09:59:30.081Z,11.90
2022-11-10T10:02:36.235Z,11.90
2022-11-10T10:05:46.371Z,11.90
2022-11-10T10:08:42.488Z,11.90
2022-11-10T10:11:46.776Z,12.00
2022-11-10T10:15:12.809Z,12.30
2022-11-10T10:18:23.712Z,12.30
2022-11-10T10:21:41.538Z,12.40
2022-11-10T10:24:33.410Z,12.50
2022-11-10T10:27:26.450Z,12.40
2022-11-10T10:30:20.625Z,12.30
2022-11-10T10:33:20.147Z,12.40
2022-11-10T10:36:28.025Z,12.30
2022-11-10T10:39:37.144Z,12.30
2022-11-10T10:42:32.942Z,12.30
2022-11-10T10:45:29.216Z,12.20
2022-11-10T10:48:28.445Z,12.20
2022-11-10T10:51:29.894Z,12.20
2022-11-10T10:54:24.816Z,12.10
2022-11-10T10:57:28.244Z,12.20
2022-11-10T11:00:22.608Z,12.20
2022-11-10T11:03:45.096Z,12.20
2022-11-10T11:06:36.888Z,12.50
2022-11-10T11:09:41.046Z,12.60
2022-11-10T11:12:32.909Z,12.90
2022-11-10T11:15:26.775Z,13.10
2022-11-10T11:18:20.500Z,13.20
2022-11-10T11:21:35.066Z,13.40
2022-11-10T11:24:43.506Z,13.50
2022-11-10T11:27:43.183Z,13.50
2022-11-10T11:31:05.926Z,13.50
2022-11-10T11:34:14.449Z,13.50
2022-11-10T11:37:37.228Z,13.70
2022-11-10T11:40:46.532Z,13.70
2022-11-10T11:43:55.492Z,13.90
2022-11-10T11:47:00.882Z,14.00
2022-11-10T11:49:51.132Z,13.90
2022-11-10T11:52:53.728Z,14.00
2022-11-10T11:56:04.213Z,14.00
2022-11-10T11:58:57.616Z,14.10
2022-11-10T12:02:09.299Z,14.30
2022-11-10T12:05:18.404Z,14.40
2022-11-10T12:08:31.261Z,14.70
2022-11-10T12:11:41.900Z,14.60
2022-11-10T12:14:53.939Z,14.70
2022-11-10T12:18:19.758Z,14.70
2022-11-10T12:21:23.389Z,14.80
2022-11-10T12:24:51.710Z,14.70
2022-11-10T12:27:49.183Z,14.70
2022-11-10T12:30:41.805Z,14.70
2022-11-10T12:33:38.495Z,14.50
2022-11-10T12:36:31.385Z,14.50
2022-11-10T12:39:29.627Z,14.40
2022-11-10T12:42:24.563Z,14.10
2022-11-10T12:45:23.628Z,14.10
2022-11-10T12:48:16.024Z,14.10
2022-11-10T12:51:44.237Z,14.20
2022-11-10T12:54:35.681Z,14.10
2022-11-10T12:57:28.452Z,14.10
2022-11-10T13:00:28.528Z,14.10
2022-11-10T13:03:26.688Z,14.10
2022-11-10T13:06:30.054Z,14.20
2022-11-10T13:09:41.157Z,14.20
2022-11-10T13:12:31.723Z,14.20
2022-11-10T13:15:37.926Z,14.20
2022-11-10T13:18:31.139Z,14.10
2022-11-10T13:22:04.796Z,14.10
2022-11-10T13:25:33.487Z,14.00
2022-11-10T13:28:48.711Z,13.70
2022-11-10T13:31:40.511Z,13.50
2022-11-10T13:34:35.981Z,13.40
2022-11-10T13:37:29.596Z,13.30
2022-11-10T13:40:26.001Z,13.30
2022-11-10T13:43:22.367Z,13.20
2022-11-10T13:46:13.607Z,13.20
2022-11-10T13:49:27.040Z,13.10
2022-11-10T13:52:21.788Z,13.10
2022-11-10T13:55:21.491Z,13.00
2022-11-10T13:58:24.839Z,13.00
2022-11-10T14:01:18.740Z,13.10
2022-11-10T14:04:33.882Z,13.10
2022-11-10T14:07:27.889Z,13.10
2022-11-10T14:10:24.008Z,13.00
2022-11-10T14:13:23.441Z,13.00
2022-11-10T14:16:24.024Z,13.00
2022-11-10T14:19:14.500Z,13.00
2022-11-10T14:22:21.876Z,13.00
2022-11-10T14:25:25.905Z,12.90
2022-11-10T14:28:34.822Z,13.00
2022-11-10T14:31:26.394Z,13.00
2022-11-10T14:34:18.128Z,13.00
2022-11-10T14:37:16.707Z,13.10
2022-11-10T14:40:17.161Z,13.00
2022-11-10T14:43:32.371Z,13.00
2022-11-10T14:46:24.753Z,13.00
2022-11-10T14:49:21.995Z,12.90
2022-11-10T14:52:13.735Z,12.80
2022-11-10T14:55:14.813Z,12.70
2022-11-10T14:58:13.472Z,12.60
2022-11-10T15:01:05.676Z,12.50
2022-11-10T15:03:57.405Z,12.50
2022-11-10T15:06:48.907Z,12.30
2022-11-10T15:09:39.003Z,13.70
2022-11-10T15:12:29.342Z,12.10
2022-11-10T15:15:22.289Z,12.00
2022-11-10T15:18:41.813Z,11.90
2022-11-10T15:21:34.066Z,11.80
2022-11-10T15:24:25.942Z,11.70
2022-11-10T15:27:28.443Z,11.70
2022-11-10T15:30:23.403Z,11.70
2022-11-10T15:33:16.807Z,11.60
2022-11-10T15:36:27.822Z,10.60
2022-11-10T15:39:23.427Z,11.40
2022-11-10T15:42:16.865Z,11.30
2022-11-10T15:45:07.812Z,11.20
2022-11-10T15:47:58.394Z,11.10
2022-11-10T15:50:52.528Z,11.00
2022-11-10T15:53:45.545Z,11.00
2022-11-10T15:56:35.753Z,10.90
2022-11-10T15:59:26.385Z,10.80
2022-11-10T16:02:25.061Z,10.70
2022-11-10T16:05:15.194Z,10.60
2022-11-10T16:08:12.627Z,10.60
2022-11-10T16:11:02.827Z,11.20
2022-11-10T16:13:54.547Z,10.30
2022-11-10T16:16:45.120Z,10.30
2022-11-10T16:19:35.224Z,10.20
2022-11-10T16:22:25.610Z,10.10
2022-11-10T16:25:22.594Z,10.10
2022-11-10T16:28:20.813Z,10.00
2022-11-10T16:31:11.808Z,10.00
2022-11-10T16:34:02.296Z,9.90
2022-11-10T16:36:52.775Z,9.80
2022-11-10T16:39:43.788Z,9.80
2022-11-10T16:42:34.235Z,9.70
2022-11-10T16:45:30.084Z,9.70
2022-11-10T16:48:23.545Z,9.60
2022-11-10T16:51:14.316Z,9.60
2022-11-10T16:54:04.668Z,9.50
2022-11-10T16:56:55.023Z,9.40
2022-11-10T16:59:45.772Z,9.30
2022-11-10T17:02:37.420Z,9.30
2022-11-10T17:05:28.189Z,9.20
2022-11-10T17:08:26.717Z,9.20
2022-11-10T17:11:17.332Z,9.10
2022-11-10T17:14:11.082Z,9.10
2022-11-10T17:17:02.170Z,9.00
2022-11-10T17:19:52.693Z,9.00
2022-11-10T17:22:42.992Z,8.90
2022-11-10T17:25:36.058Z,8.80
2022-11-10T17:28:26.132Z,8.70
2022-11-10T17:31:16.389Z,8.60
2022-11-10T17:34:06.912Z,8.60
2022-11-10T17:36:57.255Z,8.50
2022-11-10T17:39:47.808Z,8.50
2022-11-10T17:42:39.106Z,8.50
2022-11-10T17:45:30.178Z,8.50
2022-11-10T17:48:21.279Z,8.40
2022-11-10T17:51:19.759Z,8.40
2022-11-10T17:54:15.046Z,8.40
2022-11-10T17:57:06.200Z,8.30
2022-11-10T17:59:56.762Z,8.30
2022-11-10T18:02:51.187Z,8.20
2022-11-10T18:05:46.378Z,8.20
2022-11-10T18:08:37.600Z,8.20
2022-11-10T18:11:27.726Z,8.10
2022-11-10T18:14:18.239Z,8.10
2022-11-10T18:17:09.065Z,8.10
2022-11-10T18:19:59.471Z,8.00
2022-11-10T18:22:49.960Z,8.00
2022-11-10T18:25:41.840Z,8.00
2022-11-10T18:28:33.479Z,7.90
2022-11-10T18:31:23.794Z,7.80
2022-11-10T18:34:14.229Z,7.70
2022-11-10T18:37:04.741Z,7.70
2022-11-10T18:39:55.188Z,7.60
2022-11-10T18:42:45.709Z,7.60
2022-11-10T18:45:36.828Z,7.50
2022-11-10T18:48:31.055Z,7.50
2022-11-10T18:51:23.827Z,7.40
2022-11-10T18:54:14.530Z,7.50
2022-11-10T18:57:04.813Z,7.40
2022-11-10T18:59:55.305Z,7.40
2022-11-10T19:02:45.857Z,9.40
2022-11-10T19:05:38.554Z,7.40
2022-11-10T19:08:29.802Z,7.30
2022-11-10T19:11:20.254Z,7.30
2022-11-10T19:14:10.535Z,7.20
2022-11-10T19:17:00.900Z,7.20
2022-11-10T19:19:56.121Z,7.20
2022-11-10T19:22:46.979Z,7.20
2022-11-10T19:25:37.365Z,7.20
2022-11-10T19:28:28.672Z,7.10
2022-11-10T19:31:22.777Z,7.10
2022-11-10T19:34:13.126Z,7.10
2022-11-10T19:37:04.145Z,7.00
2022-11-10T19:39:54.240Z,7.00
2022-11-10T19:42:44.558Z,7.00
2022-11-10T19:45:35.144Z,7.00
2022-11-10T19:48:25.182Z,7.00
2022-11-10T19:51:17.412Z,6.90
2022-11-10T19:54:09.176Z,6.90
2022-11-10T19:56:59.434Z,6.90
2022-11-10T19:59:50.109Z,6.80
2022-11-10T20:02:45.395Z,6.70
2022-11-10T20:05:36.206Z,6.70
2022-11-10T20:08:27.260Z,6.60
2022-11-10T20:11:23.753Z,6.60
2022-11-10T20:14:13.971Z,6.50
2022-11-10T20:17:04.578Z,6.40
2022-11-10T20:19:55.086Z,6.40
2022-11-10T20:22:45.603Z,6.40
2022-11-10T20:25:36.091Z,6.40
2022-11-10T20:28:26.776Z,6.40
2022-11-10T20:31:21.289Z,6.30
2022-11-10T20:34:11.737Z,6.40
2022-11-10T20:37:02.452Z,6.40
2022-11-10T20:39:52.693Z,6.30
2022-11-10T20:42:43.095Z,6.30
2022-11-10T20:45:33.581Z,6.30
2022-11-10T20:48:23.905Z,6.30
2022-11-10T20:51:19.505Z,6.30
2022-11-10T20:54:09.827Z,6.30
2022-11-10T20:56:59.995Z,6.20
2022-11-10T20:59:50.403Z,6.20
2022-11-10T21:02:41.047Z,6.20
2022-11-10T21:05:31.217Z,6.20
2022-11-10T21:08:22.201Z,6.20
2022-11-10T21:11:32.904Z,6.20
2022-11-10T21:14:23.475Z,6.10
2022-11-10T21:17:14.056Z,7.20
2022-11-10T21:20:04.871Z,6.10
2022-11-10T21:23:02.104Z,6.10
2022-11-10T21:25:54.371Z,6.10
2022-11-10T21:28:44.961Z,6.20
2022-11-10T21:31:35.505Z,6.70
2022-11-10T21:34:25.968Z,6.20
2022-11-10T21:37:16.201Z,6.20
2022-11-10T21:40:07.071Z,6.20
2022-11-10T21:42:58.346Z,6.30
2022-11-10T21:45:48.656Z,6.30
2022-11-10T21:48:39.167Z,6.30
2022-11-10T21:51:29.872Z,6.30
2022-11-10T21:54:20.651Z,6.30
2022-11-10T21:57:11.006Z,6.40
2022-11-10T22:00:01.711Z,6.50
2022-11-10T22:02:57.835Z,6.70
2022-11-10T22:05:48.317Z,6.60
2022-11-10T22:08:39.287Z,6.70
2022-11-10T22:11:48.043Z,6.80
2022-11-10T22:14:57.647Z,6.80
2022-11-10T22:18:06.659Z,6.90
2022-11-10T22:20:57.274Z,7.00
2022-11-10T22:24:06.301Z,7.20
2022-11-10T22:26:59.123Z,7.30
2022-11-10T22:29:49.367Z,7.40
2022-11-10T22:32:39.919Z,7.40
2022-11-10T22:35:45.505Z,7.40
2022-11-10T22:38:40.152Z,7.40
2022-11-10T22:41:49.277Z,7.50
2022-11-10T22:44:39.813Z,7.50
2022-11-10T22:47:50.315Z,7.50
2022-11-10T22:50:40.779Z,7.50
2022-11-10T22:53:36.055Z,7.50
2022-11-10T22:56:26.765Z,7.50
2022-11-10T22:59:17.945Z,7.50
2022-11-10T23:02:08.600Z,7.50
2022-11-10T23:04:58.997Z,7.50
2022-11-10T23:07:49.417Z,7.50
2022-11-10T23:10:39.924Z,7.50
2022-11-10T23:13:30.795Z,7.50
2022-11-10T23:16:25.804Z,7.50
2022-11-10T23:19:16.210Z,7.50
2022-11-10T23:22:06.873Z,7.50
2022-11-10T23:24:57.672Z,7.50
2022-11-10T23:27:48.146Z,7.50
2022-11-10T23:30:38.485Z,7.50
2022-11-10T23:33:32.754Z,7.50
2022-11-10T23:36:25.846Z,7.50
2022-11-10T23:39:16.241Z,7.50
2022-11-10T23:42:07.109Z,7.50
2022-11-10T23:44:57.435Z,7.50
2022-11-10T23:47:47.889Z,7.50
2022-11-10T23:50:38.136Z,7.50
2022-11-10T23:53:28.963Z,7.50
2022-11-10T23:56:19.113Z,7.40
2022-11-10T23:59:09.660Z,7.40
